Alger, Washington
Current Conditions -  °F | °C
As of 9:56 PM on Monday 20 Oct 2014 (Local Time) from KNUW Reporting Station
Overcast Overcast  
Wind Chill: 58°   Ceiling: 8000
Heat Index: 58°   Visibility: 10mi
Dew Point: 52°   Wind: 14mph
Humidity: 81%   Direction: 150°SSE
Pressure: 29.75"   Gusts: NA
Location:  48.4982°N, 122.346°W
Report Text: KNUW 210456Z 15012KT 10SM SCT023 BKN080 OVC100 14/11 A2975 RMK AO2 SLP077 T01440111 $
Loading
Personal Weather Stations






























Interactive Weather Map
Tropical Storm Tracking
New forecast layout! Learn more

10-Day Weather Forecast

Advertisements
Track Severe Weather on mobile